sensor_id;sensor_type;location;lat;lon;timestamp;P1;durP1;ratioP1;P2;durP2;ratioP2
20040;SDS011;10181;48.072;9.884;2023-06-26T00:00:14;9.07;;;8.37;;
20040;SDS011;10181;48.072;9.884;2023-06-26T00:02:40;9.47;;;8.77;;
20040;SDS011;10181;48.072;9.884;2023-06-26T00:05:06;9.17;;;8.53;;
20040;SDS011;10181;48.072;9.884;2023-06-26T00:07:32;9.17;;;8.47;;
20040;SDS011;10181;48.072;9.884;2023-06-26T00:09:59;9.13;;;8.53;;
20040;SDS011;10181;48.072;9.884;2023-06-26T00:12:25;9.53;;;8.93;;
20040;SDS011;10181;48.072;9.884;2023-06-26T00:14:51;10.17;;;9.47;;
20040;SDS011;10181;48.072;9.884;2023-06-26T00:17:17;9.73;;;9.13;;
20040;SDS011;10181;48.072;9.884;2023-06-26T00:19:43;10.23;;;9.53;;
20040;SDS011;10181;48.072;9.884;2023-06-26T00:22:09;10.00;;;9.30;;
20040;SDS011;10181;48.072;9.884;2023-06-26T00:24:35;9.77;;;9.07;;
20040;SDS011;10181;48.072;9.884;2023-06-26T00:27:00;8.77;;;8.27;;
20040;SDS011;10181;48.072;9.884;2023-06-26T00:29:26;8.87;;;8.33;;
20040;SDS011;10181;48.072;9.884;2023-06-26T00:31:52;9.37;;;8.67;;
20040;SDS011;10181;48.072;9.884;2023-06-26T00:34:17;8.50;;;7.90;;
20040;SDS011;10181;48.072;9.884;2023-06-26T00:36:44;7.33;;;6.83;;
20040;SDS011;10181;48.072;9.884;2023-06-26T00:39:10;9.40;;;8.63;;
20040;SDS011;10181;48.072;9.884;2023-06-26T00:41:38;8.30;;;7.70;;
20040;SDS011;10181;48.072;9.884;2023-06-26T00:44:04;8.80;;;8.17;;
20040;SDS011;10181;48.072;9.884;2023-06-26T00:46:30;8.43;;;7.77;;
20040;SDS011;10181;48.072;9.884;2023-06-26T00:48:58;7.97;;;7.37;;
20040;SDS011;10181;48.072;9.884;2023-06-26T00:51:26;8.53;;;7.73;;
20040;SDS011;10181;48.072;9.884;2023-06-26T00:53:53;7.43;;;6.87;;
20040;SDS011;10181;48.072;9.884;2023-06-26T00:56:19;7.30;;;6.70;;
20040;SDS011;10181;48.072;9.884;2023-06-26T00:58:45;6.90;;;6.40;;
20040;SDS011;10181;48.072;9.884;2023-06-26T01:01:11;6.90;;;6.40;;
20040;SDS011;10181;48.072;9.884;2023-06-26T01:03:41;7.67;;;7.00;;
20040;SDS011;10181;48.072;9.884;2023-06-26T01:06:07;7.53;;;7.03;;
20040;SDS011;10181;48.072;9.884;2023-06-26T01:08:36;7.23;;;6.73;;
20040;SDS011;10181;48.072;9.884;2023-06-26T01:11:03;7.67;;;6.97;;
20040;SDS011;10181;48.072;9.884;2023-06-26T01:13:29;7.57;;;6.97;;
20040;SDS011;10181;48.072;9.884;2023-06-26T01:15:55;7.47;;;6.97;;
20040;SDS011;10181;48.072;9.884;2023-06-26T01:18:23;33.77;;;32.03;;
20040;SDS011;10181;48.072;9.884;2023-06-26T01:20:50;28.93;;;27.33;;
20040;SDS011;10181;48.072;9.884;2023-06-26T01:28:35;36.90;;;35.20;;
20040;SDS011;10181;48.072;9.884;2023-06-26T01:31:06;35.47;;;33.77;;
20040;SDS011;10181;48.072;9.884;2023-06-26T01:33:33;39.50;;;37.60;;
20040;SDS011;10181;48.072;9.884;2023-06-26T01:36:00;38.17;;;36.30;;
20040;SDS011;10181;48.072;9.884;2023-06-26T01:38:26;37.87;;;35.80;;
20040;SDS011;10181;48.072;9.884;2023-06-26T01:40:52;30.50;;;29.07;;
20040;SDS011;10181;48.072;9.884;2023-06-26T01:43:22;26.50;;;25.20;;
20040;SDS011;10181;48.072;9.884;2023-06-26T01:46:12;21.63;;;20.53;;
20040;SDS011;10181;48.072;9.884;2023-06-26T01:51:35;17.73;;;16.70;;
20040;SDS011;10181;48.072;9.884;2023-06-26T01:54:08;16.73;;;15.63;;
20040;SDS011;10181;48.072;9.884;2023-06-26T01:56:38;15.83;;;14.90;;
20040;SDS011;10181;48.072;9.884;2023-06-26T01:59:06;14.13;;;13.13;;
20040;SDS011;10181;48.072;9.884;2023-06-26T02:01:33;13.90;;;12.93;;
20040;SDS011;10181;48.072;9.884;2023-06-26T02:03:59;13.33;;;12.27;;
20040;SDS011;10181;48.072;9.884;2023-06-26T02:06:25;12.13;;;11.33;;
20040;SDS011;10181;48.072;9.884;2023-06-26T02:08:51;11.60;;;10.80;;
20040;SDS011;10181;48.072;9.884;2023-06-26T02:11:16;11.80;;;10.90;;
20040;SDS011;10181;48.072;9.884;2023-06-26T02:13:42;12.63;;;11.63;;
20040;SDS011;10181;48.072;9.884;2023-06-26T02:16:08;11.60;;;10.70;;
20040;SDS011;10181;48.072;9.884;2023-06-26T02:18:33;10.60;;;9.90;;
20040;SDS011;10181;48.072;9.884;2023-06-26T02:20:59;10.50;;;9.80;;
20040;SDS011;10181;48.072;9.884;2023-06-26T02:23:25;10.80;;;10.10;;
20040;SDS011;10181;48.072;9.884;2023-06-26T02:25:50;10.47;;;9.77;;
20040;SDS011;10181;48.072;9.884;2023-06-26T02:28:16;11.27;;;10.27;;
20040;SDS011;10181;48.072;9.884;2023-06-26T02:30:42;10.93;;;10.00;;
20040;SDS011;10181;48.072;9.884;2023-06-26T02:33:07;11.37;;;10.43;;
20040;SDS011;10181;48.072;9.884;2023-06-26T02:35:33;9.83;;;9.13;;
20040;SDS011;10181;48.072;9.884;2023-06-26T02:37:59;9.93;;;9.17;;
20040;SDS011;10181;48.072;9.884;2023-06-26T02:40:24;10.40;;;9.70;;
20040;SDS011;10181;48.072;9.884;2023-06-26T02:42:50;9.93;;;9.10;;
20040;SDS011;10181;48.072;9.884;2023-06-26T02:45:15;10.17;;;9.37;;
20040;SDS011;10181;48.072;9.884;2023-06-26T02:47:41;9.90;;;9.20;;
20040;SDS011;10181;48.072;9.884;2023-06-26T02:50:07;10.87;;;10.07;;
20040;SDS011;10181;48.072;9.884;2023-06-26T02:52:33;11.40;;;10.57;;
20040;SDS011;10181;48.072;9.884;2023-06-26T02:54:58;10.20;;;9.50;;
20040;SDS011;10181;48.072;9.884;2023-06-26T02:57:24;8.77;;;8.07;;
20040;SDS011;10181;48.072;9.884;2023-06-26T02:59:50;10.47;;;9.67;;
20040;SDS011;10181;48.072;9.884;2023-06-26T03:02:15;11.00;;;10.10;;
20040;SDS011;10181;48.072;9.884;2023-06-26T03:04:41;10.40;;;9.63;;
20040;SDS011;10181;48.072;9.884;2023-06-26T03:07:08;10.30;;;9.60;;
20040;SDS011;10181;48.072;9.884;2023-06-26T03:09:34;10.93;;;10.13;;
20040;SDS011;10181;48.072;9.884;2023-06-26T03:11:59;10.17;;;9.57;;
20040;SDS011;10181;48.072;9.884;2023-06-26T03:14:25;10.30;;;9.50;;
20040;SDS011;10181;48.072;9.884;2023-06-26T03:16:52;10.23;;;9.53;;
20040;SDS011;10181;48.072;9.884;2023-06-26T03:19:18;10.33;;;9.70;;
20040;SDS011;10181;48.072;9.884;2023-06-26T03:21:43;10.30;;;9.40;;
20040;SDS011;10181;48.072;9.884;2023-06-26T03:24:09;10.60;;;9.90;;
20040;SDS011;10181;48.072;9.884;2023-06-26T03:26:35;11.27;;;10.40;;
20040;SDS011;10181;48.072;9.884;2023-06-26T03:29:00;11.30;;;10.60;;
20040;SDS011;10181;48.072;9.884;2023-06-26T03:31:26;11.23;;;10.43;;
20040;SDS011;10181;48.072;9.884;2023-06-26T03:33:51;10.90;;;10.10;;
20040;SDS011;10181;48.072;9.884;2023-06-26T03:36:17;10.40;;;9.70;;
20040;SDS011;10181;48.072;9.884;2023-06-26T03:38:43;11.67;;;10.87;;
20040;SDS011;10181;48.072;9.884;2023-06-26T03:41:08;11.93;;;11.13;;
20040;SDS011;10181;48.072;9.884;2023-06-26T03:43:34;11.23;;;10.43;;
20040;SDS011;10181;48.072;9.884;2023-06-26T03:46:00;11.40;;;10.57;;
20040;SDS011;10181;48.072;9.884;2023-06-26T03:48:26;12.03;;;11.20;;
20040;SDS011;10181;48.072;9.884;2023-06-26T03:50:51;11.53;;;10.73;;
20040;SDS011;10181;48.072;9.884;2023-06-26T03:53:17;11.90;;;11.07;;
20040;SDS011;10181;48.072;9.884;2023-06-26T03:55:43;11.20;;;10.40;;
20040;SDS011;10181;48.072;9.884;2023-06-26T03:58:08;11.17;;;10.40;;
20040;SDS011;10181;48.072;9.884;2023-06-26T04:00:34;11.90;;;11.00;;
20040;SDS011;10181;48.072;9.884;2023-06-26T04:02:59;12.57;;;11.67;;
20040;SDS011;10181;48.072;9.884;2023-06-26T04:05:25;10.10;;;9.40;;
20040;SDS011;10181;48.072;9.884;2023-06-26T04:07:51;10.93;;;10.13;;
20040;SDS011;10181;48.072;9.884;2023-06-26T04:10:17;10.50;;;9.80;;
20040;SDS011;10181;48.072;9.884;2023-06-26T04:12:44;10.50;;;9.80;;
20040;SDS011;10181;48.072;9.884;2023-06-26T04:15:10;10.87;;;10.17;;
20040;SDS011;10181;48.072;9.884;2023-06-26T04:17:36;10.27;;;9.67;;
20040;SDS011;10181;48.072;9.884;2023-06-26T04:20:01;12.03;;;11.23;;
20040;SDS011;10181;48.072;9.884;2023-06-26T04:22:31;11.83;;;11.07;;
20040;SDS011;10181;48.072;9.884;2023-06-26T04:24:57;17.23;;;16.23;;
20040;SDS011;10181;48.072;9.884;2023-06-26T04:27:24;21.13;;;20.07;;
20040;SDS011;10181;48.072;9.884;2023-06-26T04:29:49;26.57;;;25.00;;
20040;SDS011;10181;48.072;9.884;2023-06-26T04:32:15;29.40;;;27.93;;
20040;SDS011;10181;48.072;9.884;2023-06-26T04:34:41;26.50;;;25.10;;
20040;SDS011;10181;48.072;9.884;2023-06-26T04:37:09;28.50;;;27.10;;
20040;SDS011;10181;48.072;9.884;2023-06-26T04:39:35;24.77;;;23.57;;
20040;SDS011;10181;48.072;9.884;2023-06-26T04:42:04;20.63;;;19.53;;
20040;SDS011;10181;48.072;9.884;2023-06-26T04:44:31;17.70;;;16.80;;
20040;SDS011;10181;48.072;9.884;2023-06-26T04:46:57;16.80;;;15.90;;
20040;SDS011;10181;48.072;9.884;2023-06-26T04:49:23;14.63;;;13.77;;
20040;SDS011;10181;48.072;9.884;2023-06-26T04:51:49;13.97;;;13.07;;
20040;SDS011;10181;48.072;9.884;2023-06-26T04:54:15;14.33;;;13.50;;
20040;SDS011;10181;48.072;9.884;2023-06-26T04:56:41;15.23;;;14.33;;
20040;SDS011;10181;48.072;9.884;2023-06-26T04:59:08;16.97;;;15.97;;
20040;SDS011;10181;48.072;9.884;2023-06-26T05:01:38;18.33;;;17.00;;
20040;SDS011;10181;48.072;9.884;2023-06-26T05:04:04;20.47;;;19.27;;
20040;SDS011;10181;48.072;9.884;2023-06-26T05:06:30;20.47;;;19.33;;
20040;SDS011;10181;48.072;9.884;2023-06-26T05:08:56;24.30;;;22.90;;
20040;SDS011;10181;48.072;9.884;2023-06-26T05:11:22;24.90;;;23.47;;
20040;SDS011;10181;48.072;9.884;2023-06-26T05:13:48;25.23;;;23.93;;
20040;SDS011;10181;48.072;9.884;2023-06-26T05:16:14;27.27;;;25.87;;
20040;SDS011;10181;48.072;9.884;2023-06-26T05:18:40;27.93;;;26.47;;
20040;SDS011;10181;48.072;9.884;2023-06-26T05:21:06;26.00;;;24.57;;
20040;SDS011;10181;48.072;9.884;2023-06-26T05:23:32;24.13;;;22.87;;
20040;SDS011;10181;48.072;9.884;2023-06-26T05:25:59;26.73;;;25.17;;
20040;SDS011;10181;48.072;9.884;2023-06-26T05:28:26;29.50;;;27.87;;
20040;SDS011;10181;48.072;9.884;2023-06-26T05:30:53;35.80;;;34.08;;
20040;SDS011;10181;48.072;9.884;2023-06-26T05:33:19;39.15;;;37.30;;
20040;SDS011;10181;48.072;9.884;2023-06-26T05:35:48;42.97;;;40.97;;
20040;SDS011;10181;48.072;9.884;2023-06-26T05:38:15;46.00;;;43.83;;
20040;SDS011;10181;48.072;9.884;2023-06-26T05:40:41;41.78;;;39.83;;
20040;SDS011;10181;48.072;9.884;2023-06-26T05:43:08;35.03;;;33.22;;
20040;SDS011;10181;48.072;9.884;2023-06-26T05:45:34;36.40;;;34.22;;
20040;SDS011;10181;48.072;9.884;2023-06-26T05:47:59;34.95;;;33.25;;
20040;SDS011;10181;48.072;9.884;2023-06-26T05:50:25;20.95;;;19.95;;
20040;SDS011;10181;48.072;9.884;2023-06-26T05:52:52;20.42;;;19.13;;
20040;SDS011;10181;48.072;9.884;2023-06-26T05:55:18;17.27;;;16.17;;
20040;SDS011;10181;48.072;9.884;2023-06-26T05:57:44;17.00;;;15.88;;
20040;SDS011;10181;48.072;9.884;2023-06-26T06:00:11;15.52;;;14.63;;
20040;SDS011;10181;48.072;9.884;2023-06-26T06:02:37;13.75;;;12.90;;
20040;SDS011;10181;48.072;9.884;2023-06-26T06:05:03;14.25;;;13.38;;
20040;SDS011;10181;48.072;9.884;2023-06-26T06:07:30;13.82;;;13.02;;
20040;SDS011;10181;48.072;9.884;2023-06-26T06:09:57;12.93;;;12.13;;
20040;SDS011;10181;48.072;9.884;2023-06-26T06:12:23;13.52;;;12.50;;
20040;SDS011;10181;48.072;9.884;2023-06-26T06:14:48;13.85;;;12.95;;
20040;SDS011;10181;48.072;9.884;2023-06-26T06:17:14;14.10;;;13.30;;
20040;SDS011;10181;48.072;9.884;2023-06-26T06:19:40;13.65;;;12.85;;
20040;SDS011;10181;48.072;9.884;2023-06-26T06:22:05;14.65;;;13.75;;
20040;SDS011;10181;48.072;9.884;2023-06-26T06:24:31;15.93;;;15.02;;
20040;SDS011;10181;48.072;9.884;2023-06-26T06:26:57;15.23;;;14.13;;
20040;SDS011;10181;48.072;9.884;2023-06-26T06:29:22;12.63;;;11.75;;
20040;SDS011;10181;48.072;9.884;2023-06-26T06:31:48;13.85;;;12.95;;
20040;SDS011;10181;48.072;9.884;2023-06-26T06:34:14;12.32;;;11.43;;
20040;SDS011;10181;48.072;9.884;2023-06-26T06:36:39;11.23;;;10.48;;
20040;SDS011;10181;48.072;9.884;2023-06-26T06:39:05;12.73;;;11.88;;
20040;SDS011;10181;48.072;9.884;2023-06-26T06:41:31;14.55;;;13.50;;
20040;SDS011;10181;48.072;9.884;2023-06-26T06:43:56;17.38;;;16.35;;
20040;SDS011;10181;48.072;9.884;2023-06-26T06:46:22;19.08;;;17.88;;
20040;SDS011;10181;48.072;9.884;2023-06-26T06:48:48;21.27;;;20.17;;
20040;SDS011;10181;48.072;9.884;2023-06-26T06:51:13;20.20;;;18.85;;
20040;SDS011;10181;48.072;9.884;2023-06-26T06:53:39;20.02;;;18.90;;
20040;SDS011;10181;48.072;9.884;2023-06-26T06:56:05;18.67;;;17.58;;
20040;SDS011;10181;48.072;9.884;2023-06-26T06:58:30;19.60;;;18.52;;
20040;SDS011;10181;48.072;9.884;2023-06-26T07:00:58;15.50;;;14.60;;
20040;SDS011;10181;48.072;9.884;2023-06-26T07:03:24;12.93;;;12.07;;
20040;SDS011;10181;48.072;9.884;2023-06-26T07:05:50;10.50;;;9.80;;
20040;SDS011;10181;48.072;9.884;2023-06-26T07:08:16;10.93;;;10.02;;
20040;SDS011;10181;48.072;9.884;2023-06-26T07:10:42;10.57;;;9.90;;
20040;SDS011;10181;48.072;9.884;2023-06-26T07:13:08;10.20;;;9.43;;
20040;SDS011;10181;48.072;9.884;2023-06-26T07:15:33;11.38;;;10.73;;
20040;SDS011;10181;48.072;9.884;2023-06-26T07:17:59;11.40;;;10.63;;
20040;SDS011;10181;48.072;9.884;2023-06-26T07:20:24;12.82;;;12.02;;
20040;SDS011;10181;48.072;9.884;2023-06-26T07:22:50;16.02;;;15.13;;
20040;SDS011;10181;48.072;9.884;2023-06-26T07:25:17;17.98;;;16.98;;
20040;SDS011;10181;48.072;9.884;2023-06-26T07:27:43;19.92;;;18.92;;
20040;SDS011;10181;48.072;9.884;2023-06-26T07:30:10;22.95;;;21.85;;
20040;SDS011;10181;48.072;9.884;2023-06-26T07:32:36;20.30;;;19.17;;
20040;SDS011;10181;48.072;9.884;2023-06-26T07:35:03;23.83;;;22.42;;
20040;SDS011;10181;48.072;9.884;2023-06-26T07:37:29;24.33;;;23.10;;
20040;SDS011;10181;48.072;9.884;2023-06-26T07:39:55;25.88;;;24.52;;
20040;SDS011;10181;48.072;9.884;2023-06-26T07:42:21;23.75;;;22.55;;
20040;SDS011;10181;48.072;9.884;2023-06-26T07:44:47;24.63;;;23.38;;
20040;SDS011;10181;48.072;9.884;2023-06-26T07:47:12;27.52;;;26.23;;
20040;SDS011;10181;48.072;9.884;2023-06-26T07:49:39;24.75;;;23.45;;
20040;SDS011;10181;48.072;9.884;2023-06-26T07:52:05;15.77;;;14.82;;
20040;SDS011;10181;48.072;9.884;2023-06-26T07:54:31;12.77;;;12.07;;
20040;SDS011;10181;48.072;9.884;2023-06-26T07:57:01;13.80;;;13.07;;
20040;SDS011;10181;48.072;9.884;2023-06-26T07:59:31;14.85;;;14.07;;
20040;SDS011;10181;48.072;9.884;2023-06-26T08:01:57;14.13;;;13.32;;
20040;SDS011;10181;48.072;9.884;2023-06-26T08:04:24;13.50;;;12.70;;
20040;SDS011;10181;48.072;9.884;2023-06-26T08:06:55;12.40;;;11.80;;
20040;SDS011;10181;48.072;9.884;2023-06-26T08:09:22;13.57;;;12.75;;
20040;SDS011;10181;48.072;9.884;2023-06-26T08:11:49;14.23;;;13.35;;
20040;SDS011;10181;48.072;9.884;2023-06-26T08:14:15;16.02;;;14.77;;
20040;SDS011;10181;48.072;9.884;2023-06-26T08:16:42;15.43;;;14.30;;
20040;SDS011;10181;48.072;9.884;2023-06-26T08:19:09;16.48;;;15.52;;
20040;SDS011;10181;48.072;9.884;2023-06-26T08:21:36;19.10;;;17.80;;
20040;SDS011;10181;48.072;9.884;2023-06-26T08:24:01;19.58;;;18.55;;
20040;SDS011;10181;48.072;9.884;2023-06-26T08:26:27;18.83;;;17.88;;
20040;SDS011;10181;48.072;9.884;2023-06-26T08:28:53;21.92;;;20.85;;
20040;SDS011;10181;48.072;9.884;2023-06-26T08:31:19;22.67;;;21.58;;
20040;SDS011;10181;48.072;9.884;2023-06-26T08:33:45;26.13;;;24.90;;
20040;SDS011;10181;48.072;9.884;2023-06-26T08:36:11;27.88;;;26.58;;
20040;SDS011;10181;48.072;9.884;2023-06-26T08:38:37;28.20;;;26.80;;
20040;SDS011;10181;48.072;9.884;2023-06-26T08:41:05;25.60;;;24.30;;
20040;SDS011;10181;48.072;9.884;2023-06-26T08:43:31;26.30;;;25.08;;
20040;SDS011;10181;48.072;9.884;2023-06-26T08:45:57;29.75;;;28.35;;
20040;SDS011;10181;48.072;9.884;2023-06-26T08:48:23;20.50;;;19.55;;
20040;SDS011;10181;48.072;9.884;2023-06-26T08:50:51;15.43;;;14.52;;
20040;SDS011;10181;48.072;9.884;2023-06-26T08:53:21;14.30;;;13.60;;
20040;SDS011;10181;48.072;9.884;2023-06-26T08:55:58;10.82;;;10.23;;
20040;SDS011;10181;48.072;9.884;2023-06-26T08:58:25;11.40;;;10.70;;
20040;SDS011;10181;48.072;9.884;2023-06-26T09:00:51;9.98;;;9.40;;
20040;SDS011;10181;48.072;9.884;2023-06-26T09:03:17;10.40;;;9.82;;
20040;SDS011;10181;48.072;9.884;2023-06-26T09:05:43;13.70;;;12.90;;
20040;SDS011;10181;48.072;9.884;2023-06-26T09:08:08;13.98;;;13.10;;
20040;SDS011;10181;48.072;9.884;2023-06-26T09:10:34;13.18;;;12.52;;
20040;SDS011;10181;48.072;9.884;2023-06-26T09:13:00;13.57;;;12.88;;
20040;SDS011;10181;48.072;9.884;2023-06-26T09:15:27;14.57;;;13.77;;
20040;SDS011;10181;48.072;9.884;2023-06-26T09:18:02;12.80;;;12.02;;
20040;SDS011;10181;48.072;9.884;2023-06-26T09:20:30;13.35;;;12.60;;
20040;SDS011;10181;48.072;9.884;2023-06-26T09:22:59;11.00;;;10.40;;
20040;SDS011;10181;48.072;9.884;2023-06-26T09:25:26;9.23;;;8.63;;
20040;SDS011;10181;48.072;9.884;2023-06-26T09:27:53;8.35;;;7.93;;
20040;SDS011;10181;48.072;9.884;2023-06-26T09:30:19;7.82;;;7.20;;
20040;SDS011;10181;48.072;9.884;2023-06-26T09:32:45;7.95;;;7.55;;
20040;SDS011;10181;48.072;9.884;2023-06-26T09:35:11;7.72;;;7.22;;
20040;SDS011;10181;48.072;9.884;2023-06-26T09:37:37;9.18;;;8.57;;
20040;SDS011;10181;48.072;9.884;2023-06-26T09:40:03;7.72;;;7.22;;
20040;SDS011;10181;48.072;9.884;2023-06-26T09:42:30;9.95;;;9.35;;
20040;SDS011;10181;48.072;9.884;2023-06-26T09:44:56;8.57;;;8.13;;
20040;SDS011;10181;48.072;9.884;2023-06-26T09:47:23;8.95;;;8.45;;
20040;SDS011;10181;48.072;9.884;2023-06-26T09:49:49;9.88;;;9.20;;
20040;SDS011;10181;48.072;9.884;2023-06-26T09:52:17;8.75;;;8.27;;
20040;SDS011;10181;48.072;9.884;2023-06-26T09:54:43;9.60;;;9.13;;
20040;SDS011;10181;48.072;9.884;2023-06-26T09:57:11;9.38;;;8.88;;
20040;SDS011;10181;48.072;9.884;2023-06-26T09:59:38;8.77;;;8.07;;
20040;SDS011;10181;48.072;9.884;2023-06-26T10:02:05;9.85;;;9.35;;
20040;SDS011;10181;48.072;9.884;2023-06-26T10:04:31;10.35;;;9.75;;
20040;SDS011;10181;48.072;9.884;2023-06-26T10:06:57;10.63;;;10.10;;
20040;SDS011;10181;48.072;9.884;2023-06-26T10:09:25;10.73;;;10.15;;
20040;SDS011;10181;48.072;9.884;2023-06-26T10:11:56;10.73;;;10.05;;
20040;SDS011;10181;48.072;9.884;2023-06-26T10:14:42;10.23;;;9.60;;
20040;SDS011;10181;48.072;9.884;2023-06-26T10:17:11;8.25;;;7.82;;
20040;SDS011;10181;48.072;9.884;2023-06-26T10:19:41;8.27;;;7.78;;
20040;SDS011;10181;48.072;9.884;2023-06-26T10:22:09;7.05;;;6.55;;
20040;SDS011;10181;48.072;9.884;2023-06-26T10:24:39;7.13;;;6.63;;
20040;SDS011;10181;48.072;9.884;2023-06-26T10:27:11;7.75;;;7.22;;
20040;SDS011;10181;48.072;9.884;2023-06-26T10:29:47;6.93;;;6.53;;
20040;SDS011;10181;48.072;9.884;2023-06-26T10:32:17;8.98;;;8.48;;
20040;SDS011;10181;48.072;9.884;2023-06-26T10:34:44;8.25;;;7.72;;
20040;SDS011;10181;48.072;9.884;2023-06-26T10:37:11;7.68;;;7.18;;
20040;SDS011;10181;48.072;9.884;2023-06-26T10:42:19;7.90;;;7.50;;
20040;SDS011;10181;48.072;9.884;2023-06-26T10:44:58;9.55;;;8.95;;
20040;SDS011;10181;48.072;9.884;2023-06-26T10:47:41;8.18;;;7.68;;
20040;SDS011;10181;48.072;9.884;2023-06-26T10:50:18;7.15;;;6.75;;
20040;SDS011;10181;48.072;9.884;2023-06-26T10:52:45;6.43;;;6.05;;
20040;SDS011;10181;48.072;9.884;2023-06-26T10:55:31;6.68;;;6.38;;
20040;SDS011;10181;48.072;9.884;2023-06-26T10:57:57;6.70;;;6.30;;
20040;SDS011;10181;48.072;9.884;2023-06-26T11:00:22;7.43;;;7.00;;
20040;SDS011;10181;48.072;9.884;2023-06-26T11:02:48;8.48;;;7.90;;
20040;SDS011;10181;48.072;9.884;2023-06-26T11:05:24;17.67;;;16.83;;
20040;SDS011;10181;48.072;9.884;2023-06-26T11:08:06;14.32;;;13.63;;
20040;SDS011;10181;48.072;9.884;2023-06-26T11:10:52;11.82;;;11.32;;
20040;SDS011;10181;48.072;9.884;2023-06-26T11:13:20;12.48;;;11.82;;
20040;SDS011;10181;48.072;9.884;2023-06-26T11:15:49;14.88;;;14.23;;
20040;SDS011;10181;48.072;9.884;2023-06-26T11:18:16;20.42;;;19.52;;
20040;SDS011;10181;48.072;9.884;2023-06-26T11:20:41;24.65;;;23.52;;
20040;SDS011;10181;48.072;9.884;2023-06-26T11:23:07;20.98;;;20.08;;
20040;SDS011;10181;48.072;9.884;2023-06-26T11:25:34;21.10;;;20.10;;
20040;SDS011;10181;48.072;9.884;2023-06-26T11:28:02;16.27;;;15.30;;
20040;SDS011;10181;48.072;9.884;2023-06-26T11:30:29;19.23;;;18.40;;
20040;SDS011;10181;48.072;9.884;2023-06-26T11:33:04;11.70;;;11.13;;
20040;SDS011;10181;48.072;9.884;2023-06-26T11:35:31;13.30;;;12.70;;
20040;SDS011;10181;48.072;9.884;2023-06-26T11:37:57;15.35;;;14.57;;
20040;SDS011;10181;48.072;9.884;2023-06-26T11:40:26;10.80;;;10.25;;
20040;SDS011;10181;48.072;9.884;2023-06-26T11:42:55;11.82;;;11.30;;
20040;SDS011;10181;48.072;9.884;2023-06-26T11:45:22;9.77;;;9.27;;
20040;SDS011;10181;48.072;9.884;2023-06-26T11:47:48;10.10;;;9.60;;
20040;SDS011;10181;48.072;9.884;2023-06-26T11:50:15;8.75;;;8.25;;
20040;SDS011;10181;48.072;9.884;2023-06-26T11:52:44;10.93;;;10.35;;
20040;SDS011;10181;48.072;9.884;2023-06-26T11:55:10;10.93;;;10.43;;
20040;SDS011;10181;48.072;9.884;2023-06-26T11:57:37;11.30;;;10.70;;
20040;SDS011;10181;48.072;9.884;2023-06-26T12:00:15;16.73;;;15.82;;
20040;SDS011;10181;48.072;9.884;2023-06-26T12:02:42;12.95;;;12.35;;
20040;SDS011;10181;48.072;9.884;2023-06-26T12:05:12;23.70;;;22.60;;
20040;SDS011;10181;48.072;9.884;2023-06-26T12:07:39;14.90;;;14.05;;
20040;SDS011;10181;48.072;9.884;2023-06-26T12:10:07;12.43;;;11.73;;
20040;SDS011;10181;48.072;9.884;2023-06-26T12:12:34;15.52;;;14.77;;
20040;SDS011;10181;48.072;9.884;2023-06-26T12:14:59;8.77;;;8.27;;
20040;SDS011;10181;48.072;9.884;2023-06-26T12:17:25;10.73;;;10.13;;
20040;SDS011;10181;48.072;9.884;2023-06-26T12:19:51;39.40;;;37.65;;
20040;SDS011;10181;48.072;9.884;2023-06-26T12:22:17;9.40;;;8.90;;
20040;SDS011;10181;48.072;9.884;2023-06-26T12:24:45;9.13;;;8.65;;
20040;SDS011;10181;48.072;9.884;2023-06-26T12:27:12;8.10;;;7.70;;
20040;SDS011;10181;48.072;9.884;2023-06-26T12:29:40;9.50;;;9.00;;
20040;SDS011;10181;48.072;9.884;2023-06-26T12:32:12;9.77;;;9.18;;
20040;SDS011;10181;48.072;9.884;2023-06-26T12:34:39;8.70;;;8.20;;
20040;SDS011;10181;48.072;9.884;2023-06-26T12:37:06;13.65;;;12.95;;
20040;SDS011;10181;48.072;9.884;2023-06-26T12:42:23;7.95;;;7.45;;
20040;SDS011;10181;48.072;9.884;2023-06-26T12:44:50;8.52;;;7.93;;
20040;SDS011;10181;48.072;9.884;2023-06-26T12:47:17;8.68;;;8.27;;
20040;SDS011;10181;48.072;9.884;2023-06-26T12:49:45;8.65;;;8.23;;
20040;SDS011;10181;48.072;9.884;2023-06-26T12:52:15;9.38;;;8.88;;
20040;SDS011;10181;48.072;9.884;2023-06-26T12:54:41;15.25;;;14.55;;
20040;SDS011;10181;48.072;9.884;2023-06-26T12:57:08;21.63;;;20.58;;
20040;SDS011;10181;48.072;9.884;2023-06-26T12:59:36;27.85;;;26.55;;
20040;SDS011;10181;48.072;9.884;2023-06-26T13:02:02;45.63;;;43.60;;
20040;SDS011;10181;48.072;9.884;2023-06-26T13:04:28;39.13;;;37.30;;
20040;SDS011;10181;48.072;9.884;2023-06-26T13:06:54;26.75;;;25.50;;
20040;SDS011;10181;48.072;9.884;2023-06-26T13:09:21;11.73;;;11.00;;
20040;SDS011;10181;48.072;9.884;2023-06-26T13:11:48;9.60;;;9.10;;
20040;SDS011;10181;48.072;9.884;2023-06-26T13:14:14;13.00;;;11.73;;
20040;SDS011;10181;48.072;9.884;2023-06-26T13:16:40;15.45;;;14.52;;
20040;SDS011;10181;48.072;9.884;2023-06-26T13:19:06;12.38;;;11.57;;
20040;SDS011;10181;48.072;9.884;2023-06-26T13:21:32;12.48;;;11.63;;
20040;SDS011;10181;48.072;9.884;2023-06-26T13:23:59;16.65;;;15.70;;
20040;SDS011;10181;48.072;9.884;2023-06-26T13:26:25;16.05;;;15.05;;
20040;SDS011;10181;48.072;9.884;2023-06-26T13:28:51;11.45;;;10.65;;
20040;SDS011;10181;48.072;9.884;2023-06-26T13:31:17;12.65;;;11.95;;
20040;SDS011;10181;48.072;9.884;2023-06-26T13:33:44;14.20;;;13.43;;
20040;SDS011;10181;48.072;9.884;2023-06-26T13:36:13;14.13;;;13.43;;
20040;SDS011;10181;48.072;9.884;2023-06-26T13:38:39;14.55;;;13.82;;
20040;SDS011;10181;48.072;9.884;2023-06-26T13:41:05;13.80;;;13.10;;
20040;SDS011;10181;48.072;9.884;2023-06-26T13:43:30;13.80;;;13.00;;
20040;SDS011;10181;48.072;9.884;2023-06-26T13:45:56;14.93;;;14.13;;
20040;SDS011;10181;48.072;9.884;2023-06-26T13:48:22;13.90;;;13.18;;
20040;SDS011;10181;48.072;9.884;2023-06-26T13:50:49;17.35;;;16.17;;
20040;SDS011;10181;48.072;9.884;2023-06-26T13:53:15;16.92;;;15.57;;
20040;SDS011;10181;48.072;9.884;2023-06-26T13:55:41;14.70;;;13.90;;
20040;SDS011;10181;48.072;9.884;2023-06-26T13:58:07;15.45;;;14.65;;
20040;SDS011;10181;48.072;9.884;2023-06-26T14:00:33;13.25;;;12.45;;
20040;SDS011;10181;48.072;9.884;2023-06-26T14:03:01;15.00;;;14.20;;
20040;SDS011;10181;48.072;9.884;2023-06-26T14:05:32;19.83;;;18.73;;
20040;SDS011;10181;48.072;9.884;2023-06-26T14:08:02;17.05;;;16.27;;
20040;SDS011;10181;48.072;9.884;2023-06-26T14:10:29;20.73;;;19.83;;
20040;SDS011;10181;48.072;9.884;2023-06-26T14:12:55;21.20;;;20.15;;
20040;SDS011;10181;48.072;9.884;2023-06-26T14:15:20;20.70;;;19.70;;
20040;SDS011;10181;48.072;9.884;2023-06-26T14:17:46;20.42;;;19.25;;
20040;SDS011;10181;48.072;9.884;2023-06-26T14:20:15;18.05;;;17.15;;
20040;SDS011;10181;48.072;9.884;2023-06-26T14:22:42;17.92;;;17.02;;
20040;SDS011;10181;48.072;9.884;2023-06-26T14:25:09;15.70;;;14.90;;
20040;SDS011;10181;48.072;9.884;2023-06-26T14:27:35;13.85;;;13.00;;
20040;SDS011;10181;48.072;9.884;2023-06-26T14:30:02;13.10;;;12.23;;
20040;SDS011;10181;48.072;9.884;2023-06-26T14:32:29;14.07;;;12.98;;
20040;SDS011;10181;48.072;9.884;2023-06-26T14:34:55;15.93;;;14.88;;
20040;SDS011;10181;48.072;9.884;2023-06-26T14:37:21;15.38;;;14.30;;
20040;SDS011;10181;48.072;9.884;2023-06-26T14:39:47;17.08;;;16.08;;